Gimhae International Airport
RKPK : now visible

Airfield :











YOU CAN JOIN US ON...

 
LOGIN :

Register | Disclaimer

   EN    FR    IT 

 









Legend :    VFR   Marginal VFR   IFR   Intensive IFR   Very Intensive IFR
Visi :
Ceiling :
>= 8 km
>= 3000ft
5 to 8 km
1000 to 3000 ft
1500m to 5 km
500 to 1000 ft
800 to 1500m
200 to 500 ft
< 800m
< 200 ft
Symbols :   Thunderstorms  Fog  Heavy snow  Heavy precipitations  Wind > 20 kt






- Airport Elevation : 6 ft
- IATA code : PUS


RKPK - Gimhae International

CURRENT METAR :
  • 272100Z 36004KT CAVOK 03/00 Q1026

EXPIRED METARs :
  • 272000Z 36003KT 9999 SCT050 BKN180 04/00 Q1026
  • 271900Z 36004KT 9999 BKN050 BKN150 03/00 Q1026

TAF TAF RKPK
Valid from the 27 at 18:00 until the 29 at 00:00 UTC


271700Z 2718/2824 06006KT 9999 BKN050 BKN150 TN03/2721Z TX10/2806Z
BECMG 2800/2801 BKN030 BKN100
BECMG 2805/2806 12006KT 8000 -RA SCT015 OVC030
BECMG 2811/2812 03006KT 9999 NSW BKN030



MET'MAP, your aeronautical weather chart ! - Copyright ORBIFLY December 2007 - Disclaimer

ORBIFLY MET'MAP TEAM :

Programming & Development : Alexandra Zaïnal
Concept & original design : Baudouin d'Aumeries
Assistance for programming : Marc-Olivier Méhu
Technical & hardware support : Manuel Goepfert

Contact : metmap@orbifly.com




SOURCES & CREDITS :

   NOAA       Earth
Advisory